Portada
METAR-TAF:

METAR-TAF

Aeroports :

Cobar, Austràlia

latitud: 31-32-18S, longitud: 145-47-36E, altitud: 221 m

Observació

L'informe es va fer fa 54 minuts, a les 13:00 UTC
Vent 11 kt del Sud-Oest
Temperatura 24°C
Humitat 61%
Pressió 1013 hPa
Visibilitat 10 km o més
Núvols disperses a una alçada de 5600 ft
Cel ennuvolat a una alçada de 9700 ft
Cel cobert a una alçada de 12000 ft

METAR: YCBA 241300Z AUTO 22011KT 9999 // SCT056 BKN097 OVC120 24/16 Q1013

Hora: 00:54 (13:54 UTC)


TAF: manca

Observacions i pronòstics meteorològics de més de 4000 aeroports (METAR i TAF).

Les estacions disponibles són els punts grocs i vermells al mapa.

Posi el ratolí al punt desitjat per veure el nom de l'estació.

Feu clic per veure les observacions i els pronòstics meteorològics.

Per canviar el mapa: feu clic els botons verds amb una creu de color negre per apropar; al botó verd amb un guió per allunyar la imatge; o en les fletxes verdes per a mapes adjacents.


METAR-TAF: